createdAt,value
2023-05-16T00:01:39.652Z,13.90
2023-05-16T00:06:42.292Z,12.80
2023-05-16T00:11:44.918Z,16.87
2023-05-16T00:16:47.932Z,14.07
2023-05-16T00:21:50.596Z,13.83
2023-05-16T00:26:52.946Z,15.60
2023-05-16T00:31:56.541Z,16.00
2023-05-16T00:36:59.023Z,12.87
2023-05-16T00:42:01.473Z,18.40
2023-05-16T00:47:04.226Z,12.80
2023-05-16T00:52:06.945Z,12.53
2023-05-16T00:57:09.808Z,12.30
2023-05-16T01:02:13.193Z,12.47
2023-05-16T01:07:15.719Z,13.33
2023-05-16T01:12:45.733Z,10.90
2023-05-16T01:18:05.878Z,10.93
2023-05-16T01:23:11.333Z,10.47
2023-05-16T01:28:16.289Z,10.00
2023-05-16T01:33:18.678Z,9.67
2023-05-16T01:38:38.697Z,9.60
2023-05-16T01:43:45.468Z,9.30
2023-05-16T01:49:08.203Z,8.47
2023-05-16T01:54:13.826Z,9.63
2023-05-16T01:59:16.567Z,9.37
2023-05-16T02:04:19.312Z,9.37
2023-05-16T02:09:21.918Z,9.77
2023-05-16T02:14:25.951Z,9.10
2023-05-16T02:19:28.861Z,8.97
2023-05-16T02:24:31.306Z,9.03
2023-05-16T02:29:33.742Z,7.10
2023-05-16T02:34:36.184Z,11.70
2023-05-16T02:39:38.754Z,7.20
2023-05-16T02:44:41.272Z,7.97
2023-05-16T02:49:43.851Z,7.80
2023-05-16T02:54:51.916Z,9.27
2023-05-16T03:00:02.689Z,9.63
2023-05-16T03:05:06.375Z,10.53
2023-05-16T03:10:09.256Z,9.13
2023-05-16T03:15:11.704Z,8.27
2023-05-16T03:20:14.648Z,6.80
2023-05-16T03:25:17.071Z,7.40
2023-05-16T03:30:20.478Z,9.33
2023-05-16T03:35:23.294Z,7.07
2023-05-16T03:40:26.095Z,7.83
2023-05-16T03:45:30.823Z,6.77
2023-05-16T03:50:33.318Z,8.83
2023-05-16T03:55:36.176Z,6.97
2023-05-16T04:00:38.644Z,7.10
2023-05-16T04:05:41.374Z,12.17
2023-05-16T04:10:43.813Z,6.97
2023-05-16T04:15:46.399Z,7.50
2023-05-16T04:20:49.192Z,8.73
2023-05-16T04:25:51.648Z,10.43
2023-05-16T04:30:54.466Z,10.67
2023-05-16T04:35:58.697Z,8.60
2023-05-16T04:41:02.069Z,7.57
2023-05-16T04:46:04.709Z,8.47
2023-05-16T04:51:07.438Z,9.80
2023-05-16T04:56:12.853Z,8.37
2023-05-16T05:01:15.998Z,6.80
2023-05-16T05:06:18.484Z,7.43
2023-05-16T05:11:21.493Z,6.27
2023-05-16T05:16:23.887Z,7.53
2023-05-16T05:21:26.866Z,5.80
2023-05-16T05:26:29.355Z,7.23
2023-05-16T05:31:33.842Z,5.50
2023-05-16T05:36:36.394Z,7.03
2023-05-16T05:41:39.984Z,5.63
2023-05-16T05:46:42.717Z,4.70
2023-05-16T05:51:45.388Z,5.57
2023-05-16T05:56:47.909Z,5.77
2023-05-16T06:01:52.983Z,4.23
2023-05-16T06:06:55.568Z,6.70
2023-05-16T06:11:57.957Z,5.20
2023-05-16T06:17:00.279Z,5.67
2023-05-16T06:22:03.052Z,5.30
2023-05-16T06:27:05.601Z,6.07
2023-05-16T06:32:09.357Z,7.07
2023-05-16T06:37:12.824Z,7.97
2023-05-16T06:42:15.342Z,8.37
2023-05-16T06:47:18.128Z,7.53
2023-05-16T06:52:22.056Z,7.30
2023-05-16T06:57:24.441Z,8.00
2023-05-16T07:02:26.967Z,9.43
2023-05-16T07:07:29.840Z,7.40
2023-05-16T07:12:32.660Z,8.20
2023-05-16T07:17:35.538Z,11.47
2023-05-16T07:22:38.488Z,6.13
2023-05-16T07:27:45.243Z,7.17
2023-05-16T07:32:48.029Z,4.80
2023-05-16T07:37:50.556Z,4.87
2023-05-16T07:42:52.901Z,8.30
2023-05-16T07:47:55.331Z,4.33
2023-05-16T07:52:57.733Z,4.80
2023-05-16T07:58:00.469Z,4.20
2023-05-16T08:03:03.458Z,4.97
2023-05-16T08:08:06.280Z,6.00
2023-05-16T08:13:08.753Z,4.77
2023-05-16T08:18:15.129Z,3.83
2023-05-16T08:23:18.059Z,4.10
2023-05-16T08:28:20.477Z,4.43
2023-05-16T08:33:22.901Z,3.93
2023-05-16T08:38:25.264Z,3.93
2023-05-16T08:43:28.058Z,4.10
2023-05-16T08:48:33.072Z,3.87
2023-05-16T08:53:41.855Z,3.83
2023-05-16T08:58:44.775Z,5.97
2023-05-16T09:03:48.368Z,3.83
2023-05-16T09:08:50.924Z,7.53
2023-05-16T09:13:53.228Z,5.77
2023-05-16T09:18:58.995Z,4.70
2023-05-16T09:24:09.375Z,3.73
2023-05-16T09:29:12.916Z,5.03
2023-05-16T09:34:15.469Z,4.13
2023-05-16T09:39:17.819Z,3.90
2023-05-16T09:44:20.196Z,3.70
2023-05-16T09:49:22.693Z,3.70
2023-05-16T09:54:32.878Z,3.43
2023-05-16T09:59:39.190Z,3.40
2023-05-16T10:04:42.804Z,3.20
2023-05-16T10:09:46.270Z,3.67
2023-05-16T10:14:50.447Z,3.00
2023-05-16T10:20:07.506Z,3.20
2023-05-16T10:25:41.787Z,3.33
2023-05-16T10:30:46.452Z,4.33
2023-05-16T10:35:48.941Z,4.33
2023-05-16T10:40:51.932Z,3.53
2023-05-16T10:45:56.575Z,4.70
2023-05-16T10:50:59.429Z,4.00
2023-05-16T10:56:01.917Z,4.47
2023-05-16T11:01:34.011Z,5.73
2023-05-16T11:06:42.438Z,6.03
2023-05-16T11:11:49.459Z,7.23
2023-05-16T11:16:55.201Z,5.07
2023-05-16T11:22:24.973Z,9.23
2023-05-16T11:27:30.284Z,5.83
2023-05-16T11:32:37.989Z,5.67
2023-05-16T11:37:40.917Z,6.50
2023-05-16T11:42:48.033Z,6.83
2023-05-16T11:47:50.793Z,6.90
2023-05-16T11:52:56.262Z,7.43
2023-05-16T11:57:59.574Z,6.50
2023-05-16T12:03:06.796Z,6.67
2023-05-16T12:08:11.040Z,9.67
2023-05-16T12:13:13.749Z,7.17
2023-05-16T12:18:17.353Z,6.73
2023-05-16T12:23:20.130Z,6.10
2023-05-16T12:28:22.515Z,6.37
2023-05-16T12:33:25.039Z,6.87
2023-05-16T12:38:27.748Z,7.03
2023-05-16T12:43:30.228Z,7.63
2023-05-16T12:48:37.244Z,8.63
2023-05-16T12:54:01.329Z,8.90
2023-05-16T12:59:13.770Z,9.00
2023-05-16T13:04:19.449Z,10.07
2023-05-16T13:09:23.573Z,10.10
2023-05-16T13:14:25.935Z,8.03
2023-05-16T13:19:28.376Z,8.30
2023-05-16T13:24:30.784Z,8.20
2023-05-16T13:29:33.274Z,11.47
2023-05-16T13:34:35.727Z,7.93
2023-05-16T13:39:38.274Z,8.20
2023-05-16T13:44:40.725Z,7.63
2023-05-16T13:49:43.130Z,11.27
2023-05-16T13:54:45.510Z,8.77
2023-05-16T14:00:11.469Z,10.93
2023-05-16T14:05:13.904Z,12.63
2023-05-16T14:10:16.358Z,13.20
2023-05-16T14:15:18.720Z,12.10
2023-05-16T14:20:21.228Z,15.50
2023-05-16T14:25:23.613Z,17.73
2023-05-16T14:30:26.701Z,16.33
2023-05-16T14:35:29.745Z,15.90
2023-05-16T14:40:32.317Z,11.80
2023-05-16T14:45:34.854Z,10.30
2023-05-16T14:50:37.257Z,11.87
2023-05-16T14:55:39.644Z,14.07
2023-05-16T15:00:42.123Z,11.67
2023-05-16T15:05:45.148Z,14.90
2023-05-16T15:10:47.457Z,13.03
2023-05-16T15:15:49.814Z,12.10
2023-05-16T15:20:53.164Z,14.13
2023-05-16T15:25:55.643Z,9.90
2023-05-16T15:30:57.968Z,9.07
2023-05-16T15:36:00.353Z,6.87
2023-05-16T15:41:19.791Z,9.40
2023-05-16T15:46:30.491Z,6.90
2023-05-16T15:51:32.920Z,12.93
2023-05-16T15:56:35.302Z,14.17
2023-05-16T16:01:37.780Z,16.10
2023-05-16T16:06:40.135Z,17.70
2023-05-16T16:11:42.870Z,15.83
2023-05-16T16:16:45.494Z,16.33
2023-05-16T16:21:48.100Z,21.97
2023-05-16T16:26:50.585Z,80.10
2023-05-16T16:31:53.266Z,31.27
2023-05-16T16:36:55.981Z,21.83
2023-05-16T16:41:58.519Z,19.90
2023-05-16T16:47:00.999Z,36.93
2023-05-16T16:52:03.730Z,29.80
2023-05-16T16:57:06.365Z,34.57
2023-05-16T17:02:10.209Z,31.77
2023-05-16T17:07:12.801Z,29.87
2023-05-16T17:12:18.795Z,38.17
2023-05-16T17:17:21.460Z,35.73
2023-05-16T17:22:23.803Z,31.97
2023-05-16T17:27:26.459Z,33.13
2023-05-16T17:32:28.850Z,47.50
2023-05-16T17:37:31.275Z,30.33
2023-05-16T17:42:33.731Z,27.57
2023-05-16T17:47:36.183Z,24.70
2023-05-16T17:52:39.856Z,26.83
2023-05-16T17:57:42.564Z,28.73
2023-05-16T18:02:45.012Z,25.03
2023-05-16T18:07:47.412Z,24.17
2023-05-16T18:12:50.402Z,22.43
2023-05-16T18:17:52.998Z,26.70
2023-05-16T18:22:55.703Z,26.27
2023-05-16T18:27:58.285Z,21.63
2023-05-16T18:33:00.748Z,22.33
2023-05-16T18:38:03.961Z,20.07
2023-05-16T18:43:06.732Z,18.20
2023-05-16T18:48:09.493Z,16.37
2023-05-16T18:53:11.958Z,19.60
2023-05-16T18:58:14.620Z,17.83
2023-05-16T19:03:17.288Z,17.67
2023-05-16T19:08:20.814Z,18.17
2023-05-16T19:13:23.257Z,16.87
2023-05-16T19:18:25.699Z,17.83
2023-05-16T19:23:28.164Z,18.47
2023-05-16T19:28:31.074Z,15.37
2023-05-16T19:33:33.438Z,15.03
2023-05-16T19:38:35.824Z,17.70
2023-05-16T19:43:38.210Z,23.67
2023-05-16T19:48:40.723Z,15.63
2023-05-16T19:53:43.251Z,16.40
2023-05-16T19:58:47.572Z,16.83
2023-05-16T20:03:49.961Z,17.67
2023-05-16T20:08:52.364Z,15.47
2023-05-16T20:13:55.727Z,22.57
2023-05-16T20:18:58.265Z,17.93
2023-05-16T20:24:00.804Z,17.67
2023-05-16T20:29:04.251Z,20.57
2023-05-16T20:34:06.643Z,19.47
2023-05-16T20:39:09.152Z,18.33
2023-05-16T20:44:11.605Z,17.47
2023-05-16T20:49:13.915Z,18.63
2023-05-16T20:54:16.331Z,17.73
2023-05-16T20:59:18.754Z,17.73
2023-05-16T21:04:21.127Z,19.77
2023-05-16T21:09:23.577Z,18.93
2023-05-16T21:14:26.049Z,19.50
2023-05-16T21:19:33.936Z,18.13
2023-05-16T21:24:37.448Z,17.93
2023-05-16T21:29:40.000Z,14.70
2023-05-16T21:34:42.393Z,15.27
2023-05-16T21:39:44.735Z,16.33
2023-05-16T21:44:47.099Z,17.57
2023-05-16T21:49:49.817Z,14.53
2023-05-16T21:54:52.173Z,14.50
2023-05-16T21:59:54.492Z,15.17
2023-05-16T22:04:56.898Z,16.23
2023-05-16T22:09:59.568Z,14.50
2023-05-16T22:15:01.953Z,19.10
2023-05-16T22:20:04.637Z,15.53
2023-05-16T22:25:07.540Z,15.43
2023-05-16T22:30:10.665Z,16.13
2023-05-16T22:35:14.880Z,16.63
2023-05-16T22:40:17.275Z,14.53
2023-05-16T22:45:19.712Z,16.03
2023-05-16T22:50:22.055Z,15.03
2023-05-16T22:55:24.482Z,16.83
2023-05-16T23:00:26.847Z,15.07
2023-05-16T23:05:29.452Z,13.57
2023-05-16T23:10:32.333Z,14.40
2023-05-16T23:15:34.909Z,13.97
2023-05-16T23:20:37.337Z,10.63
2023-05-16T23:25:39.716Z,11.83
2023-05-16T23:30:43.654Z,14.80
2023-05-16T23:35:46.076Z,10.70
2023-05-16T23:40:48.419Z,14.83
2023-05-16T23:45:50.763Z,13.13
2023-05-16T23:50:53.104Z,13.67
2023-05-16T23:55:55.804Z,14.37
